sensor_id;sensor_type;location;lat;lon;timestamp;P1;durP1;ratioP1;P2;durP2;ratioP2
55254;SDS011;41118;44.634;11.182;2023-05-19T00:01:23;1.20;;;0.45;;
55254;SDS011;41118;44.634;11.182;2023-05-19T00:03:50;2.95;;;0.40;;
55254;SDS011;41118;44.634;11.182;2023-05-19T00:06:20;2.75;;;0.40;;
55254;SDS011;41118;44.634;11.182;2023-05-19T00:08:48;2.40;;;0.40;;
55254;SDS011;41118;44.634;11.182;2023-05-19T00:11:14;1.67;;;0.88;;
55254;SDS011;41118;44.634;11.182;2023-05-19T00:13:41;2.05;;;0.30;;
55254;SDS011;41118;44.634;11.182;2023-05-19T00:16:09;1.45;;;0.40;;
55254;SDS011;41118;44.634;11.182;2023-05-19T00:18:35;2.50;;;0.30;;
55254;SDS011;41118;44.634;11.182;2023-05-19T00:21:02;1.05;;;0.40;;
55254;SDS011;41118;44.634;11.182;2023-05-19T00:23:28;1.80;;;0.32;;
55254;SDS011;41118;44.634;11.182;2023-05-19T00:25:54;1.88;;;0.30;;
55254;SDS011;41118;44.634;11.182;2023-05-19T00:28:20;2.35;;;0.30;;
55254;SDS011;41118;44.634;11.182;2023-05-19T00:30:46;3.70;;;0.40;;
55254;SDS011;41118;44.634;11.182;2023-05-19T00:33:12;1.25;;;1.00;;
55254;SDS011;41118;44.634;11.182;2023-05-19T00:35:38;2.38;;;0.30;;
55254;SDS011;41118;44.634;11.182;2023-05-19T00:38:04;1.10;;;0.30;;
55254;SDS011;41118;44.634;11.182;2023-05-19T00:40:31;2.13;;;0.40;;
55254;SDS011;41118;44.634;11.182;2023-05-19T00:42:57;3.78;;;0.40;;
55254;SDS011;41118;44.634;11.182;2023-05-19T00:45:23;1.58;;;0.40;;
55254;SDS011;41118;44.634;11.182;2023-05-19T00:47:50;2.72;;;0.98;;
55254;SDS011;41118;44.634;11.182;2023-05-19T00:50:16;1.70;;;0.50;;
55254;SDS011;41118;44.634;11.182;2023-05-19T00:52:42;2.88;;;0.40;;
55254;SDS011;41118;44.634;11.182;2023-05-19T00:55:08;2.83;;;0.50;;
55254;SDS011;41118;44.634;11.182;2023-05-19T00:57:34;1.58;;;0.40;;
55254;SDS011;41118;44.634;11.182;2023-05-19T01:00:02;1.85;;;0.30;;
55254;SDS011;41118;44.634;11.182;2023-05-19T01:02:28;1.55;;;0.45;;
55254;SDS011;41118;44.634;11.182;2023-05-19T01:04:55;1.15;;;0.30;;
55254;SDS011;41118;44.634;11.182;2023-05-19T01:07:22;2.25;;;0.40;;
55254;SDS011;41118;44.634;11.182;2023-05-19T01:09:49;4.55;;;0.50;;
55254;SDS011;41118;44.634;11.182;2023-05-19T01:12:16;2.08;;;0.40;;
55254;SDS011;41118;44.634;11.182;2023-05-19T01:14:42;1.30;;;0.40;;
55254;SDS011;41118;44.634;11.182;2023-05-19T01:17:13;1.70;;;0.40;;
55254;SDS011;41118;44.634;11.182;2023-05-19T01:20:08;1.30;;;0.38;;
55254;SDS011;41118;44.634;11.182;2023-05-19T01:32:47;1.10;;;0.30;;
55254;SDS011;41118;44.634;11.182;2023-05-19T01:35:14;2.33;;;0.35;;
55254;SDS011;41118;44.634;11.182;2023-05-19T01:37:41;1.80;;;0.40;;
55254;SDS011;41118;44.634;11.182;2023-05-19T01:40:09;1.85;;;0.73;;
55254;SDS011;41118;44.634;11.182;2023-05-19T01:42:36;3.42;;;0.63;;
55254;SDS011;41118;44.634;11.182;2023-05-19T01:45:04;2.45;;;0.30;;
55254;SDS011;41118;44.634;11.182;2023-05-19T01:47:34;1.60;;;0.40;;
55254;SDS011;41118;44.634;11.182;2023-05-19T01:50:02;1.65;;;0.45;;
55254;SDS011;41118;44.634;11.182;2023-05-19T01:52:28;3.20;;;0.40;;
55254;SDS011;41118;44.634;11.182;2023-05-19T01:54:54;1.50;;;0.40;;
55254;SDS011;41118;44.634;11.182;2023-05-19T02:08:42;4.43;;;0.38;;
55254;SDS011;41118;44.634;11.182;2023-05-19T02:11:13;2.45;;;0.40;;
55254;SDS011;41118;44.634;11.182;2023-05-19T02:13:42;2.17;;;0.40;;
55254;SDS011;41118;44.634;11.182;2023-05-19T02:16:08;2.58;;;0.40;;
55254;SDS011;41118;44.634;11.182;2023-05-19T02:18:35;2.58;;;0.40;;
55254;SDS011;41118;44.634;11.182;2023-05-19T02:21:01;1.90;;;0.60;;
55254;SDS011;41118;44.634;11.182;2023-05-19T02:23:27;3.53;;;0.40;;
55254;SDS011;41118;44.634;11.182;2023-05-19T02:25:53;3.85;;;0.30;;
55254;SDS011;41118;44.634;11.182;2023-05-19T02:28:19;2.67;;;0.50;;
55254;SDS011;41118;44.634;11.182;2023-05-19T02:30:45;2.90;;;0.40;;
55254;SDS011;41118;44.634;11.182;2023-05-19T02:33:11;2.78;;;0.40;;
55254;SDS011;41118;44.634;11.182;2023-05-19T02:35:37;1.45;;;0.40;;
55254;SDS011;41118;44.634;11.182;2023-05-19T02:38:04;2.25;;;0.88;;
55254;SDS011;41118;44.634;11.182;2023-05-19T02:40:30;1.85;;;0.40;;
55254;SDS011;41118;44.634;11.182;2023-05-19T02:42:57;5.65;;;0.50;;
55254;SDS011;41118;44.634;11.182;2023-05-19T02:45:23;1.80;;;0.30;;
55254;SDS011;41118;44.634;11.182;2023-05-19T02:47:49;1.63;;;0.40;;
55254;SDS011;41118;44.634;11.182;2023-05-19T02:50:15;2.08;;;0.50;;
55254;SDS011;41118;44.634;11.182;2023-05-19T02:52:41;1.48;;;0.30;;
55254;SDS011;41118;44.634;11.182;2023-05-19T02:55:07;4.20;;;0.45;;
55254;SDS011;41118;44.634;11.182;2023-05-19T02:57:33;1.23;;;0.40;;
55254;SDS011;41118;44.634;11.182;2023-05-19T02:59:59;1.10;;;0.30;;
55254;SDS011;41118;44.634;11.182;2023-05-19T03:02:26;1.35;;;0.40;;
55254;SDS011;41118;44.634;11.182;2023-05-19T03:04:52;1.38;;;0.45;;
55254;SDS011;41118;44.634;11.182;2023-05-19T03:07:18;7.38;;;1.33;;
55254;SDS011;41118;44.634;11.182;2023-05-19T03:09:49;4.53;;;0.30;;
55254;SDS011;41118;44.634;11.182;2023-05-19T03:12:15;1.92;;;0.43;;
55254;SDS011;41118;44.634;11.182;2023-05-19T03:14:41;1.55;;;0.38;;
55254;SDS011;41118;44.634;11.182;2023-05-19T03:17:07;3.05;;;0.50;;
55254;SDS011;41118;44.634;11.182;2023-05-19T03:19:34;2.97;;;0.50;;
55254;SDS011;41118;44.634;11.182;2023-05-19T03:22:00;3.45;;;0.40;;
55254;SDS011;41118;44.634;11.182;2023-05-19T03:24:27;1.92;;;0.30;;
55254;SDS011;41118;44.634;11.182;2023-05-19T03:26:53;1.10;;;0.38;;
55254;SDS011;41118;44.634;11.182;2023-05-19T03:29:19;2.25;;;0.32;;
55254;SDS011;41118;44.634;11.182;2023-05-19T03:31:45;0.77;;;0.30;;
55254;SDS011;41118;44.634;11.182;2023-05-19T03:34:12;1.58;;;0.77;;
55254;SDS011;41118;44.634;11.182;2023-05-19T03:36:38;0.93;;;0.30;;
55254;SDS011;41118;44.634;11.182;2023-05-19T03:39:07;4.20;;;0.32;;
55254;SDS011;41118;44.634;11.182;2023-05-19T03:41:33;1.13;;;0.38;;
55254;SDS011;41118;44.634;11.182;2023-05-19T03:43:59;3.08;;;0.30;;
55254;SDS011;41118;44.634;11.182;2023-05-19T03:46:25;1.17;;;0.30;;
55254;SDS011;41118;44.634;11.182;2023-05-19T03:48:51;1.58;;;0.30;;
55254;SDS011;41118;44.634;11.182;2023-05-19T03:51:17;1.63;;;0.45;;
55254;SDS011;41118;44.634;11.182;2023-05-19T03:53:43;1.83;;;0.50;;
55254;SDS011;41118;44.634;11.182;2023-05-19T03:56:09;3.22;;;0.30;;
55254;SDS011;41118;44.634;11.182;2023-05-19T03:58:37;1.38;;;0.60;;
55254;SDS011;41118;44.634;11.182;2023-05-19T04:01:07;1.70;;;0.30;;
55254;SDS011;41118;44.634;11.182;2023-05-19T04:03:33;4.30;;;0.30;;
55254;SDS011;41118;44.634;11.182;2023-05-19T04:05:59;1.85;;;0.50;;
55254;SDS011;41118;44.634;11.182;2023-05-19T04:08:25;3.28;;;0.30;;
55254;SDS011;41118;44.634;11.182;2023-05-19T04:10:51;0.90;;;0.30;;
55254;SDS011;41118;44.634;11.182;2023-05-19T04:13:17;1.75;;;0.30;;
55254;SDS011;41118;44.634;11.182;2023-05-19T04:15:43;2.05;;;0.30;;
55254;SDS011;41118;44.634;11.182;2023-05-19T04:18:09;1.55;;;0.30;;
55254;SDS011;41118;44.634;11.182;2023-05-19T04:20:35;1.17;;;0.30;;
55254;SDS011;41118;44.634;11.182;2023-05-19T04:23:02;9.57;;;0.73;;
55254;SDS011;41118;44.634;11.182;2023-05-19T04:25:28;3.58;;;0.60;;
55254;SDS011;41118;44.634;11.182;2023-05-19T04:27:54;4.53;;;0.30;;
55254;SDS011;41118;44.634;11.182;2023-05-19T04:30:22;2.35;;;0.40;;
55254;SDS011;41118;44.634;11.182;2023-05-19T04:32:48;1.00;;;0.30;;
55254;SDS011;41118;44.634;11.182;2023-05-19T04:35:14;1.17;;;0.30;;
55254;SDS011;41118;44.634;11.182;2023-05-19T04:37:44;1.25;;;0.30;;
55254;SDS011;41118;44.634;11.182;2023-05-19T04:40:11;5.40;;;0.30;;
55254;SDS011;41118;44.634;11.182;2023-05-19T04:42:37;0.77;;;0.20;;
55254;SDS011;41118;44.634;11.182;2023-05-19T04:45:07;1.40;;;0.30;;
55254;SDS011;41118;44.634;11.182;2023-05-19T04:47:34;5.97;;;0.38;;
55254;SDS011;41118;44.634;11.182;2023-05-19T04:50:02;1.65;;;0.25;;
55254;SDS011;41118;44.634;11.182;2023-05-19T04:52:28;1.00;;;0.20;;
55254;SDS011;41118;44.634;11.182;2023-05-19T04:54:54;1.33;;;0.20;;
55254;SDS011;41118;44.634;11.182;2023-05-19T04:57:21;0.95;;;0.28;;
55254;SDS011;41118;44.634;11.182;2023-05-19T04:59:47;1.00;;;0.30;;
55254;SDS011;41118;44.634;11.182;2023-05-19T05:02:14;1.63;;;0.30;;
55254;SDS011;41118;44.634;11.182;2023-05-19T05:04:40;0.68;;;0.20;;
55254;SDS011;41118;44.634;11.182;2023-05-19T05:07:08;1.10;;;0.20;;
55254;SDS011;41118;44.634;11.182;2023-05-19T05:09:34;4.00;;;0.20;;
55254;SDS011;41118;44.634;11.182;2023-05-19T05:12:01;2.22;;;0.20;;
55254;SDS011;41118;44.634;11.182;2023-05-19T05:14:27;0.80;;;0.20;;
55254;SDS011;41118;44.634;11.182;2023-05-19T05:16:53;0.77;;;0.28;;
55254;SDS011;41118;44.634;11.182;2023-05-19T05:19:20;5.97;;;0.20;;
55254;SDS011;41118;44.634;11.182;2023-05-19T05:21:46;0.80;;;0.20;;
55254;SDS011;41118;44.634;11.182;2023-05-19T05:24:12;1.90;;;0.25;;
55254;SDS011;41118;44.634;11.182;2023-05-19T05:26:38;1.05;;;0.30;;
55254;SDS011;41118;44.634;11.182;2023-05-19T05:29:07;1.52;;;0.30;;
55254;SDS011;41118;44.634;11.182;2023-05-19T05:31:33;2.45;;;0.20;;
55254;SDS011;41118;44.634;11.182;2023-05-19T05:33:59;1.02;;;0.20;;
55254;SDS011;41118;44.634;11.182;2023-05-19T05:36:25;3.90;;;0.30;;
55254;SDS011;41118;44.634;11.182;2023-05-19T05:38:51;0.73;;;0.17;;
55254;SDS011;41118;44.634;11.182;2023-05-19T05:41:17;0.77;;;0.10;;
55254;SDS011;41118;44.634;11.182;2023-05-19T05:43:43;1.33;;;0.25;;
55254;SDS011;41118;44.634;11.182;2023-05-19T05:46:10;4.18;;;0.20;;
55254;SDS011;41118;44.634;11.182;2023-05-19T05:48:36;1.08;;;0.20;;
55254;SDS011;41118;44.634;11.182;2023-05-19T05:51:02;2.17;;;0.20;;
55254;SDS011;41118;44.634;11.182;2023-05-19T05:53:29;2.75;;;0.20;;
55254;SDS011;41118;44.634;11.182;2023-05-19T05:55:56;0.77;;;0.17;;
55254;SDS011;41118;44.634;11.182;2023-05-19T05:58:22;0.95;;;0.20;;
55254;SDS011;41118;44.634;11.182;2023-05-19T06:00:48;3.42;;;0.20;;
55254;SDS011;41118;44.634;11.182;2023-05-19T06:03:15;2.25;;;0.35;;
55254;SDS011;41118;44.634;11.182;2023-05-19T06:05:41;0.95;;;0.20;;
55254;SDS011;41118;44.634;11.182;2023-05-19T06:08:08;1.20;;;0.20;;
55254;SDS011;41118;44.634;11.182;2023-05-19T06:10:34;1.60;;;0.20;;
55254;SDS011;41118;44.634;11.182;2023-05-19T06:13:02;2.42;;;0.30;;
55254;SDS011;41118;44.634;11.182;2023-05-19T06:15:28;1.05;;;0.20;;
55254;SDS011;41118;44.634;11.182;2023-05-19T06:17:54;2.60;;;0.28;;
55254;SDS011;41118;44.634;11.182;2023-05-19T06:20:20;1.10;;;0.20;;
55254;SDS011;41118;44.634;11.182;2023-05-19T06:22:46;1.10;;;0.20;;
55254;SDS011;41118;44.634;11.182;2023-05-19T06:25:13;1.23;;;0.20;;
55254;SDS011;41118;44.634;11.182;2023-05-19T06:27:39;3.60;;;0.30;;
55254;SDS011;41118;44.634;11.182;2023-05-19T06:30:05;1.90;;;0.20;;
55254;SDS011;41118;44.634;11.182;2023-05-19T06:32:32;0.50;;;0.20;;
55254;SDS011;41118;44.634;11.182;2023-05-19T06:34:58;0.60;;;0.17;;
55254;SDS011;41118;44.634;11.182;2023-05-19T06:37:25;0.93;;;0.20;;
55254;SDS011;41118;44.634;11.182;2023-05-19T06:39:51;3.00;;;0.22;;
55254;SDS011;41118;44.634;11.182;2023-05-19T06:42:21;0.90;;;0.28;;
55254;SDS011;41118;44.634;11.182;2023-05-19T06:44:50;1.13;;;0.28;;
55254;SDS011;41118;44.634;11.182;2023-05-19T06:47:17;3.58;;;0.20;;
55254;SDS011;41118;44.634;11.182;2023-05-19T06:49:43;1.33;;;0.20;;
55254;SDS011;41118;44.634;11.182;2023-05-19T06:52:09;1.80;;;0.20;;
55254;SDS011;41118;44.634;11.182;2023-05-19T06:54:36;3.17;;;0.30;;
55254;SDS011;41118;44.634;11.182;2023-05-19T06:57:02;2.10;;;0.30;;
55254;SDS011;41118;44.634;11.182;2023-05-19T06:59:28;1.17;;;0.55;;
55254;SDS011;41118;44.634;11.182;2023-05-19T07:01:54;2.58;;;0.30;;
55254;SDS011;41118;44.634;11.182;2023-05-19T07:04:21;1.60;;;0.30;;
55254;SDS011;41118;44.634;11.182;2023-05-19T07:06:47;1.40;;;0.20;;
55254;SDS011;41118;44.634;11.182;2023-05-19T07:09:14;2.10;;;0.30;;
55254;SDS011;41118;44.634;11.182;2023-05-19T07:11:40;5.55;;;0.45;;
55254;SDS011;41118;44.634;11.182;2023-05-19T07:14:06;1.75;;;0.40;;
55254;SDS011;41118;44.634;11.182;2023-05-19T07:16:32;3.20;;;0.30;;
55254;SDS011;41118;44.634;11.182;2023-05-19T07:18:58;4.70;;;0.50;;
55254;SDS011;41118;44.634;11.182;2023-05-19T07:21:24;4.28;;;0.52;;
55254;SDS011;41118;44.634;11.182;2023-05-19T07:23:50;1.52;;;0.50;;
55254;SDS011;41118;44.634;11.182;2023-05-19T07:26:16;2.13;;;0.50;;
55254;SDS011;41118;44.634;11.182;2023-05-19T07:28:42;3.83;;;0.70;;
55254;SDS011;41118;44.634;11.182;2023-05-19T07:31:08;2.45;;;0.75;;
55254;SDS011;41118;44.634;11.182;2023-05-19T07:33:34;1.75;;;0.52;;
55254;SDS011;41118;44.634;11.182;2023-05-19T07:36:00;1.45;;;0.47;;
55254;SDS011;41118;44.634;11.182;2023-05-19T07:38:26;2.35;;;0.57;;
55254;SDS011;41118;44.634;11.182;2023-05-19T07:40:53;4.88;;;0.43;;
55254;SDS011;41118;44.634;11.182;2023-05-19T07:43:19;2.53;;;0.60;;
55254;SDS011;41118;44.634;11.182;2023-05-19T07:45:45;4.30;;;0.60;;
55254;SDS011;41118;44.634;11.182;2023-05-19T07:48:11;3.53;;;0.73;;
55254;SDS011;41118;44.634;11.182;2023-05-19T07:50:37;3.45;;;0.52;;
55254;SDS011;41118;44.634;11.182;2023-05-19T07:53:04;2.90;;;0.85;;
55254;SDS011;41118;44.634;11.182;2023-05-19T07:55:30;3.35;;;0.60;;
55254;SDS011;41118;44.634;11.182;2023-05-19T07:57:57;1.63;;;0.40;;
55254;SDS011;41118;44.634;11.182;2023-05-19T08:00:23;2.08;;;0.55;;
55254;SDS011;41118;44.634;11.182;2023-05-19T08:02:49;4.00;;;0.30;;
55254;SDS011;41118;44.634;11.182;2023-05-19T08:05:16;1.98;;;0.30;;
55254;SDS011;41118;44.634;11.182;2023-05-19T08:07:43;7.95;;;0.40;;
55254;SDS011;41118;44.634;11.182;2023-05-19T08:10:09;2.63;;;0.75;;
55254;SDS011;41118;44.634;11.182;2023-05-19T08:12:35;1.73;;;0.40;;
55254;SDS011;41118;44.634;11.182;2023-05-19T08:15:01;2.55;;;0.55;;
55254;SDS011;41118;44.634;11.182;2023-05-19T08:17:27;2.80;;;0.57;;
55254;SDS011;41118;44.634;11.182;2023-05-19T08:19:54;1.02;;;0.30;;
55254;SDS011;41118;44.634;11.182;2023-05-19T08:22:20;0.85;;;0.20;;
55254;SDS011;41118;44.634;11.182;2023-05-19T08:24:46;1.50;;;0.40;;
55254;SDS011;41118;44.634;11.182;2023-05-19T08:27:14;1.25;;;0.30;;
55254;SDS011;41118;44.634;11.182;2023-05-19T08:29:40;3.10;;;0.20;;
55254;SDS011;41118;44.634;11.182;2023-05-19T08:32:07;3.05;;;0.30;;
55254;SDS011;41118;44.634;11.182;2023-05-19T08:34:33;2.25;;;0.20;;
55254;SDS011;41118;44.634;11.182;2023-05-19T08:36:59;1.48;;;0.30;;
55254;SDS011;41118;44.634;11.182;2023-05-19T08:39:25;3.90;;;0.28;;
55254;SDS011;41118;44.634;11.182;2023-05-19T08:41:54;2.40;;;0.30;;
55254;SDS011;41118;44.634;11.182;2023-05-19T08:44:21;1.83;;;0.20;;
55254;SDS011;41118;44.634;11.182;2023-05-19T08:46:47;1.45;;;0.30;;
55254;SDS011;41118;44.634;11.182;2023-05-19T08:49:14;0.65;;;0.20;;
55254;SDS011;41118;44.634;11.182;2023-05-19T08:54:13;3.58;;;0.30;;
55254;SDS011;41118;44.634;11.182;2023-05-19T08:56:43;1.33;;;0.20;;
55254;SDS011;41118;44.634;11.182;2023-05-19T08:59:10;1.10;;;0.20;;
55254;SDS011;41118;44.634;11.182;2023-05-19T09:01:37;1.08;;;0.20;;
55254;SDS011;41118;44.634;11.182;2023-05-19T09:04:03;2.08;;;0.38;;
55254;SDS011;41118;44.634;11.182;2023-05-19T09:06:30;3.67;;;0.20;;
55254;SDS011;41118;44.634;11.182;2023-05-19T09:08:57;1.05;;;0.30;;
55254;SDS011;41118;44.634;11.182;2023-05-19T09:11:23;1.20;;;0.20;;
55254;SDS011;41118;44.634;11.182;2023-05-19T09:13:49;0.63;;;0.10;;
55254;SDS011;41118;44.634;11.182;2023-05-19T09:16:15;0.82;;;0.20;;
55254;SDS011;41118;44.634;11.182;2023-05-19T09:18:52;0.70;;;0.20;;
55254;SDS011;41118;44.634;11.182;2023-05-19T09:21:19;0.32;;;0.10;;
55254;SDS011;41118;44.634;11.182;2023-05-19T09:23:52;0.68;;;0.20;;
55254;SDS011;41118;44.634;11.182;2023-05-19T09:26:20;1.55;;;0.20;;
55254;SDS011;41118;44.634;11.182;2023-05-19T09:28:47;1.05;;;0.20;;
55254;SDS011;41118;44.634;11.182;2023-05-19T09:31:19;1.10;;;0.10;;
55254;SDS011;41118;44.634;11.182;2023-05-19T09:33:46;0.82;;;0.20;;
55254;SDS011;41118;44.634;11.182;2023-05-19T09:36:12;1.60;;;0.20;;
55254;SDS011;41118;44.634;11.182;2023-05-19T09:38:38;1.35;;;0.30;;
55254;SDS011;41118;44.634;11.182;2023-05-19T09:41:06;2.30;;;0.30;;
55254;SDS011;41118;44.634;11.182;2023-05-19T09:43:33;3.60;;;0.50;;
55254;SDS011;41118;44.634;11.182;2023-05-19T09:46:01;1.10;;;0.30;;
55254;SDS011;41118;44.634;11.182;2023-05-19T09:48:28;0.88;;;0.25;;
55254;SDS011;41118;44.634;11.182;2023-05-19T09:50:55;1.30;;;0.30;;
55254;SDS011;41118;44.634;11.182;2023-05-19T09:53:21;4.13;;;1.23;;
55254;SDS011;41118;44.634;11.182;2023-05-19T09:55:49;1.23;;;0.30;;
55254;SDS011;41118;44.634;11.182;2023-05-19T09:58:16;1.45;;;0.32;;
55254;SDS011;41118;44.634;11.182;2023-05-19T10:00:44;6.95;;;0.35;;
55254;SDS011;41118;44.634;11.182;2023-05-19T10:03:10;4.82;;;0.30;;
55254;SDS011;41118;44.634;11.182;2023-05-19T10:05:36;1.40;;;0.30;;
55254;SDS011;41118;44.634;11.182;2023-05-19T10:08:02;3.53;;;0.40;;
55254;SDS011;41118;44.634;11.182;2023-05-19T10:10:31;2.10;;;0.40;;
55254;SDS011;41118;44.634;11.182;2023-05-19T10:12:58;1.63;;;0.40;;
55254;SDS011;41118;44.634;11.182;2023-05-19T10:15:24;1.30;;;0.30;;
55254;SDS011;41118;44.634;11.182;2023-05-19T10:17:51;2.60;;;0.30;;
55254;SDS011;41118;44.634;11.182;2023-05-19T10:20:18;1.17;;;0.22;;
55254;SDS011;41118;44.634;11.182;2023-05-19T10:22:44;1.75;;;0.10;;
55254;SDS011;41118;44.634;11.182;2023-05-19T10:25:11;1.55;;;0.10;;
55254;SDS011;41118;44.634;11.182;2023-05-19T10:27:56;0.70;;;0.10;;
55254;SDS011;41118;44.634;11.182;2023-05-19T10:30:27;1.05;;;0.20;;
55254;SDS011;41118;44.634;11.182;2023-05-19T10:32:54;2.80;;;0.63;;
55254;SDS011;41118;44.634;11.182;2023-05-19T10:35:39;0.43;;;0.10;;
55254;SDS011;41118;44.634;11.182;2023-05-19T10:40:52;1.17;;;0.13;;
55254;SDS011;41118;44.634;11.182;2023-05-19T10:45:52;0.95;;;0.10;;
55254;SDS011;41118;44.634;11.182;2023-05-19T10:48:19;2.15;;;0.10;;
55254;SDS011;41118;44.634;11.182;2023-05-19T10:50:46;2.00;;;0.20;;
55254;SDS011;41118;44.634;11.182;2023-05-19T10:53:13;0.70;;;0.20;;
55254;SDS011;41118;44.634;11.182;2023-05-19T10:56:00;0.57;;;0.10;;
55254;SDS011;41118;44.634;11.182;2023-05-19T10:59:01;0.60;;;0.10;;
55254;SDS011;41118;44.634;11.182;2023-05-19T11:01:20;0.70;;;0.10;;
55254;SDS011;41118;44.634;11.182;2023-05-19T11:03:52;0.82;;;0.20;;
55254;SDS011;41118;44.634;11.182;2023-05-19T11:06:19;0.82;;;0.20;;
55254;SDS011;41118;44.634;11.182;2023-05-19T11:08:45;0.60;;;0.10;;
55254;SDS011;41118;44.634;11.182;2023-05-19T11:11:15;0.40;;;0.10;;
55254;SDS011;41118;44.634;11.182;2023-05-19T11:13:42;3.15;;;0.15;;
55254;SDS011;41118;44.634;11.182;2023-05-19T11:16:12;1.02;;;0.10;;
55254;SDS011;41118;44.634;11.182;2023-05-19T11:18:38;0.55;;;0.10;;
55254;SDS011;41118;44.634;11.182;2023-05-19T11:21:04;0.43;;;0.05;;
55254;SDS011;41118;44.634;11.182;2023-05-19T11:23:33;0.43;;;0.10;;
55254;SDS011;41118;44.634;11.182;2023-05-19T11:26:04;0.70;;;0.10;;
55254;SDS011;41118;44.634;11.182;2023-05-19T11:28:32;0.50;;;0.20;;
55254;SDS011;41118;44.634;11.182;2023-05-19T11:30:59;0.77;;;0.10;;
55254;SDS011;41118;44.634;11.182;2023-05-19T11:33:26;0.63;;;0.10;;
55254;SDS011;41118;44.634;11.182;2023-05-19T11:35:53;0.30;;;0.05;;
55254;SDS011;41118;44.634;11.182;2023-05-19T11:38:21;0.45;;;0.10;;
55254;SDS011;41118;44.634;11.182;2023-05-19T11:40:51;0.30;;;0.10;;
55254;SDS011;41118;44.634;11.182;2023-05-19T11:43:17;0.40;;;0.10;;
55254;SDS011;41118;44.634;11.182;2023-05-19T11:45:43;0.88;;;0.10;;
55254;SDS011;41118;44.634;11.182;2023-05-19T11:48:10;0.70;;;0.10;;
55254;SDS011;41118;44.634;11.182;2023-05-19T11:50:36;0.47;;;0.10;;
55254;SDS011;41118;44.634;11.182;2023-05-19T11:53:05;0.40;;;0.00;;
55254;SDS011;41118;44.634;11.182;2023-05-19T11:55:32;0.13;;;0.00;;
55254;SDS011;41118;44.634;11.182;2023-05-19T11:57:58;0.90;;;0.05;;
55254;SDS011;41118;44.634;11.182;2023-05-19T12:00:26;0.80;;;0.10;;
55254;SDS011;41118;44.634;11.182;2023-05-19T12:02:52;2.42;;;0.10;;
55254;SDS011;41118;44.634;11.182;2023-05-19T12:05:22;2.08;;;0.10;;
55254;SDS011;41118;44.634;11.182;2023-05-19T12:07:48;1.15;;;0.10;;
55254;SDS011;41118;44.634;11.182;2023-05-19T12:10:37;0.65;;;0.10;;
55254;SDS011;41118;44.634;11.182;2023-05-19T12:13:01;0.50;;;0.10;;
55254;SDS011;41118;44.634;11.182;2023-05-19T12:15:27;0.50;;;0.10;;
55254;SDS011;41118;44.634;11.182;2023-05-19T12:17:57;0.63;;;0.10;;
55254;SDS011;41118;44.634;11.182;2023-05-19T12:20:23;0.40;;;0.10;;
55254;SDS011;41118;44.634;11.182;2023-05-19T12:22:50;0.82;;;0.10;;
55254;SDS011;41118;44.634;11.182;2023-05-19T12:25:17;0.65;;;0.10;;
55254;SDS011;41118;44.634;11.182;2023-05-19T12:27:43;1.45;;;0.10;;
55254;SDS011;41118;44.634;11.182;2023-05-19T12:30:10;0.77;;;0.20;;
55254;SDS011;41118;44.634;11.182;2023-05-19T12:32:36;1.02;;;0.08;;
55254;SDS011;41118;44.634;11.182;2023-05-19T12:35:03;1.95;;;0.10;;
55254;SDS011;41118;44.634;11.182;2023-05-19T12:37:30;0.80;;;0.10;;
55254;SDS011;41118;44.634;11.182;2023-05-19T12:39:57;2.78;;;0.10;;
55254;SDS011;41118;44.634;11.182;2023-05-19T12:42:25;0.60;;;0.10;;
55254;SDS011;41118;44.634;11.182;2023-05-19T12:44:55;1.33;;;0.10;;
55254;SDS011;41118;44.634;11.182;2023-05-19T12:47:21;0.43;;;0.10;;
55254;SDS011;41118;44.634;11.182;2023-05-19T12:52:20;0.50;;;0.10;;
55254;SDS011;41118;44.634;11.182;2023-05-19T12:54:47;0.50;;;0.10;;
55254;SDS011;41118;44.634;11.182;2023-05-19T12:57:15;0.45;;;0.10;;
55254;SDS011;41118;44.634;11.182;2023-05-19T12:59:41;0.40;;;0.10;;
55254;SDS011;41118;44.634;11.182;2023-05-19T13:02:07;0.50;;;0.10;;
55254;SDS011;41118;44.634;11.182;2023-05-19T13:04:34;1.40;;;0.05;;
55254;SDS011;41118;44.634;11.182;2023-05-19T13:07:00;3.10;;;0.10;;
55254;SDS011;41118;44.634;11.182;2023-05-19T13:09:26;1.40;;;0.05;;
55254;SDS011;41118;44.634;11.182;2023-05-19T13:11:52;0.22;;;0.10;;
55254;SDS011;41118;44.634;11.182;2023-05-19T13:14:19;0.30;;;0.10;;
55254;SDS011;41118;44.634;11.182;2023-05-19T13:16:46;0.75;;;0.10;;
55254;SDS011;41118;44.634;11.182;2023-05-19T13:19:16;4.32;;;0.10;;
55254;SDS011;41118;44.634;11.182;2023-05-19T13:21:43;0.40;;;0.10;;
55254;SDS011;41118;44.634;11.182;2023-05-19T13:24:11;1.17;;;0.20;;
55254;SDS011;41118;44.634;11.182;2023-05-19T13:26:38;0.80;;;0.10;;
55254;SDS011;41118;44.634;11.182;2023-05-19T13:29:05;1.15;;;0.10;;
55254;SDS011;41118;44.634;11.182;2023-05-19T13:31:31;3.03;;;0.20;;
55254;SDS011;41118;44.634;11.182;2023-05-19T13:33:57;0.50;;;0.10;;
55254;SDS011;41118;44.634;11.182;2023-05-19T13:36:24;1.42;;;0.10;;
55254;SDS011;41118;44.634;11.182;2023-05-19T13:38:51;1.02;;;0.20;;
55254;SDS011;41118;44.634;11.182;2023-05-19T13:41:21;0.93;;;0.20;;
55254;SDS011;41118;44.634;11.182;2023-05-19T13:43:48;0.30;;;0.10;;
55254;SDS011;41118;44.634;11.182;2023-05-19T13:46:14;0.63;;;0.10;;
55254;SDS011;41118;44.634;11.182;2023-05-19T13:48:40;0.77;;;0.10;;
55254;SDS011;41118;44.634;11.182;2023-05-19T13:51:06;1.45;;;0.10;;
55254;SDS011;41118;44.634;11.182;2023-05-19T13:53:32;0.40;;;0.10;;
55254;SDS011;41118;44.634;11.182;2023-05-19T13:56:01;1.40;;;0.10;;
55254;SDS011;41118;44.634;11.182;2023-05-19T13:58:27;0.50;;;0.10;;
55254;SDS011;41118;44.634;11.182;2023-05-19T14:00:53;0.60;;;0.10;;
55254;SDS011;41118;44.634;11.182;2023-05-19T14:03:21;0.32;;;0.00;;
55254;SDS011;41118;44.634;11.182;2023-05-19T14:05:47;0.40;;;0.00;;
55254;SDS011;41118;44.634;11.182;2023-05-19T14:08:14;0.47;;;0.00;;
55254;SDS011;41118;44.634;11.182;2023-05-19T14:10:41;0.45;;;0.08;;
55254;SDS011;41118;44.634;11.182;2023-05-19T14:13:07;0.20;;;0.00;;
55254;SDS011;41118;44.634;11.182;2023-05-19T14:15:35;0.20;;;0.00;;
55254;SDS011;41118;44.634;11.182;2023-05-19T14:18:02;0.60;;;0.20;;
55254;SDS011;41118;44.634;11.182;2023-05-19T14:20:28;0.28;;;0.00;;
55254;SDS011;41118;44.634;11.182;2023-05-19T14:22:54;0.20;;;0.00;;
55254;SDS011;41118;44.634;11.182;2023-05-19T14:25:20;0.40;;;0.10;;
55254;SDS011;41118;44.634;11.182;2023-05-19T14:27:46;0.50;;;0.10;;
55254;SDS011;41118;44.634;11.182;2023-05-19T14:30:13;0.20;;;0.00;;
55254;SDS011;41118;44.634;11.182;2023-05-19T14:32:39;0.25;;;0.00;;
55254;SDS011;41118;44.634;11.182;2023-05-19T14:35:05;0.10;;;0.00;;
55254;SDS011;41118;44.634;11.182;2023-05-19T14:37:31;0.20;;;0.00;;
55254;SDS011;41118;44.634;11.182;2023-05-19T14:39:57;0.22;;;0.00;;
55254;SDS011;41118;44.634;11.182;2023-05-19T14:42:23;0.40;;;0.00;;
55254;SDS011;41118;44.634;11.182;2023-05-19T14:44:49;0.35;;;0.00;;
55254;SDS011;41118;44.634;11.182;2023-05-19T14:47:16;0.10;;;0.00;;
55254;SDS011;41118;44.634;11.182;2023-05-19T14:49:42;0.40;;;0.00;;
55254;SDS011;41118;44.634;11.182;2023-05-19T14:52:08;0.13;;;0.00;;
55254;SDS011;41118;44.634;11.182;2023-05-19T14:54:34;1.90;;;0.00;;
55254;SDS011;41118;44.634;11.182;2023-05-19T14:57:00;2.25;;;0.00;;
55254;SDS011;41118;44.634;11.182;2023-05-19T14:59:27;0.20;;;0.00;;
55254;SDS011;41118;44.634;11.182;2023-05-19T15:01:53;0.10;;;0.00;;
55254;SDS011;41118;44.634;11.182;2023-05-19T15:04:19;0.20;;;0.00;;